Time;durP1;ratioP1;P1;durP2;ratioP2;P2;SDS_P1;SDS_P2;PMS_P1;PMS_P2;Temp;Humidity;BMP_temperature;BMP_pressure;BME280_temperature;BME280_humidity;BME280_pressure;Samples;Min_cycle;Max_cycle;Signal;HPM_P1;HPM_P2
2023/09/05 00:00:02;;;;;;;;;;;;;;;16.96;100.00;101951.03;5057353;28;20378;-74
2023/09/05 00:02:28;;;;;;;;;;;;;;;16.98;100.00;101954.47;5055704;28;20131;-73
2023/09/05 00:04:54;;;;;;;;;;;;;;;16.98;100.00;101956.31;5054169;28;19963;-74
2023/09/05 00:07:19;;;;;;;;;;;;;;;16.88;100.00;101951.69;5054091;28;20023;-73
2023/09/05 00:09:44;;;;;;;;;;;;;;;16.75;100.00;101948.31;5061951;28;19923;-73
2023/09/05 00:12:09;;;;;;;;;;;;;;;16.63;100.00;101942.09;5039054;28;20033;-73
2023/09/05 00:14:35;;;;;;;;;;;;;;;16.54;100.00;101945.63;5053607;28;19928;-74
2023/09/05 00:17:00;;;;;;;;;;;;;;;16.52;100.00;101950.31;5054290;28;19920;-73
2023/09/05 00:19:26;;;;;;;;;;;;;;;16.36;100.00;101945.34;5056442;28;20274;-74
2023/09/05 00:21:51;;;;;;;;;;;;;;;16.23;100.00;101949.06;5058564;28;20273;-73
2023/09/05 00:24:22;;;;;;;;;;;;;;;16.07;100.00;101954.09;5057793;28;19917;-74
2023/09/05 00:26:47;;;;;;;;;;;;;;;15.94;100.00;101948.81;5059626;28;19920;-74
2023/09/05 00:29:12;;;;;;;;;;;;;;;15.92;100.00;101956.22;5058588;28;20510;-75
2023/09/05 00:31:40;;;;;;;;;;;;;;;15.76;100.00;101962.84;5037002;28;20256;-74
2023/09/05 00:34:05;;;;;;;;;;;;;;;15.68;100.00;101962.66;5058465;28;20023;-74
2023/09/05 00:36:30;;;;;;;;;;;;;;;15.59;100.00;101970.53;5056981;28;19927;-74
2023/09/05 00:38:55;;;;;;;;;;;;;;;15.57;100.00;101975.19;5062152;28;20389;-74
2023/09/05 00:41:21;;;;;;;;;;;;;;;15.43;100.00;101975.47;5035910;28;20342;-74
2023/09/05 00:43:49;;;;;;;;;;;;;;;15.33;100.00;101983.47;5038030;28;20430;-74
2023/09/05 00:46:14;;;;;;;;;;;;;;;15.20;100.00;101983.59;5055889;28;19967;-74
2023/09/05 00:48:42;;;;;;;;;;;;;;;15.08;100.00;101980.00;5056486;28;20037;-74
2023/09/05 00:51:08;;;;;;;;;;;;;;;14.97;100.00;101986.25;5032112;28;20163;-74
2023/09/05 00:53:33;;;;;;;;;;;;;;;15.01;100.00;101986.88;5059530;28;19940;-74
2023/09/05 00:55:58;;;;;;;;;;;;;;;15.03;100.00;101967.81;5043283;28;19930;-74
2023/09/05 00:58:23;;;;;;;;;;;;;;;15.26;100.00;101998.47;5052528;28;20349;-74
2023/09/05 01:00:49;;;;;;;;;;;;;;;15.33;100.00;101993.41;5057618;28;19924;-74
2023/09/05 01:03:14;;;;;;;;;;;;;;;15.38;100.00;101993.91;5056742;28;19951;-74
2023/09/05 01:05:39;;;;;;;;;;;;;;;15.37;100.00;101992.19;5036164;28;19920;-74
2023/09/05 01:08:08;;;;;;;;;;;;;;;15.35;100.00;101996.84;5039197;28;19920;-73
2023/09/05 01:10:53;;;;;;;;;;;;;;;15.42;100.00;102001.66;5053382;28;20010;-74
2023/09/05 01:13:27;;;;;;;;;;;;;;;15.28;100.00;101991.94;5043930;28;19920;-73
2023/09/05 01:15:53;;;;;;;;;;;;;;;15.03;100.00;101992.16;5034337;28;19931;-74
2023/09/05 01:18:18;;;;;;;;;;;;;;;14.83;100.00;101981.91;5050098;28;19924;-74
2023/09/05 01:20:51;;;;;;;;;;;;;;;14.80;100.00;101987.59;5055877;28;19920;-74
2023/09/05 01:23:17;;;;;;;;;;;;;;;14.71;100.00;101982.88;5057692;28;19928;-74
2023/09/05 01:25:42;;;;;;;;;;;;;;;14.64;100.00;101984.28;5038257;28;19920;-73
2023/09/05 01:28:11;;;;;;;;;;;;;;;14.57;100.00;101986.63;5038092;28;19974;-74
2023/09/05 01:30:38;;;;;;;;;;;;;;;14.49;100.00;101980.94;5058546;28;19935;-74
2023/09/05 01:33:03;;;;;;;;;;;;;;;14.47;100.00;101991.88;5053901;28;19938;-74
2023/09/05 01:35:28;;;;;;;;;;;;;;;14.46;100.00;101981.16;5036861;28;19975;-73
2023/09/05 01:37:53;;;;;;;;;;;;;;;14.55;100.00;101984.03;5036399;28;19924;-74
2023/09/05 01:40:19;;;;;;;;;;;;;;;14.44;100.00;101981.28;5055685;28;19924;-74
2023/09/05 01:42:44;;;;;;;;;;;;;;;14.44;100.00;101981.28;5053346;28;19974;-74
2023/09/05 01:45:09;;;;;;;;;;;;;;;14.48;100.00;101979.19;5037310;28;20378;-76
2023/09/05 01:47:35;;;;;;;;;;;;;;;14.59;100.00;101981.06;5039454;28;20390;-76
2023/09/05 01:50:00;;;;;;;;;;;;;;;14.76;100.00;101979.81;5051439;28;20396;-76
2023/09/05 01:52:25;;;;;;;;;;;;;;;14.62;100.00;101983.53;5070927;28;19926;-74
2023/09/05 01:54:50;;;;;;;;;;;;;;;14.48;100.00;101976.50;5052752;28;19930;-76
2023/09/05 01:57:16;;;;;;;;;;;;;;;14.47;100.00;101980.19;5054567;28;20431;-76
2023/09/05 01:59:41;;;;;;;;;;;;;;;14.54;100.00;101978.75;5054020;28;20341;-76
2023/09/05 02:02:07;;;;;;;;;;;;;;;14.65;100.00;101984.19;5038655;28;19936;-76
2023/09/05 02:04:32;;;;;;;;;;;;;;;14.68;100.00;101984.00;5056678;28;19927;-75
2023/09/05 02:06:57;;;;;;;;;;;;;;;14.74;100.00;101971.84;5038032;28;19959;-76
2023/09/05 02:09:23;;;;;;;;;;;;;;;14.72;100.00;101972.91;5040396;28;19923;-76
2023/09/05 02:11:48;;;;;;;;;;;;;;;14.66;100.00;101972.41;5054799;28;20019;-76
2023/09/05 02:14:13;;;;;;;;;;;;;;;14.61;100.00;101976.41;5054706;28;19963;-76
2023/09/05 02:16:38;;;;;;;;;;;;;;;14.51;100.00;101974.44;5056577;28;20018;-76
2023/09/05 02:19:03;;;;;;;;;;;;;;;14.45;100.00;101972.19;5054356;28;20007;-76
2023/09/05 02:21:29;;;;;;;;;;;;;;;14.32;100.00;101968.69;5052295;28;19946;-75
2023/09/05 02:23:54;;;;;;;;;;;;;;;14.31;100.00;101972.38;5053190;28;19926;-76
2023/09/05 02:26:19;;;;;;;;;;;;;;;14.20;100.00;101978.59;5052283;28;20120;-76
2023/09/05 02:28:44;;;;;;;;;;;;;;;14.27;100.00;101974.47;5059878;28;19927;-75
2023/09/05 02:31:10;;;;;;;;;;;;;;;14.31;100.00;101972.38;5055364;28;19920;-75
2023/09/05 02:33:36;;;;;;;;;;;;;;;14.33;100.00;101971.31;5054684;28;19975;-75
2023/09/05 02:36:08;;;;;;;;;;;;;;;14.31;100.00;101972.38;5036952;28;20424;-75
2023/09/05 02:38:34;;;;;;;;;;;;;;;14.16;100.00;101979.81;5030645;28;20202;-75
2023/09/05 02:40:59;;;;;;;;;;;;;;;14.10;100.00;101968.50;5042878;28;19936;-75
2023/09/05 02:43:24;;;;;;;;;;;;;;;14.06;100.00;101972.41;5057405;28;19921;-75
2023/09/05 02:45:50;;;;;;;;;;;;;;;13.99;100.00;101978.38;5041833;28;20678;-75
2023/09/05 02:48:15;;;;;;;;;;;;;;;13.94;100.00;101976.88;5041732;28;19928;-75
2023/09/05 02:50:40;;;;;;;;;;;;;;;13.86;100.00;101971.19;5057279;28;20704;-75
2023/09/05 02:53:06;;;;;;;;;;;;;;;13.80;100.00;101963.53;5035447;28;19962;-75
2023/09/05 02:55:33;;;;;;;;;;;;;;;13.69;100.00;101964.31;5058297;28;19951;-75
2023/09/05 02:57:58;;;;;;;;;;;;;;;13.63;100.00;101965.63;5057638;28;19942;-75
2023/09/05 03:00:23;;;;;;;;;;;;;;;13.61;100.00;101964.88;5059390;28;20386;-75
2023/09/05 03:02:49;;;;;;;;;;;;;;;13.62;100.00;101963.91;5040949;28;19982;-75
2023/09/05 03:05:15;;;;;;;;;;;;;;;13.59;100.00;101964.13;5057724;28;20402;-75
2023/09/05 03:07:40;;;;;;;;;;;;;;;13.64;100.00;101963.78;5056391;28;20291;-75
2023/09/05 03:10:05;;;;;;;;;;;;;;;13.67;100.00;101960.88;5055225;28;20305;-75
2023/09/05 03:12:31;;;;;;;;;;;;;;;13.67;100.00;101957.31;5060889;28;20472;-75
2023/09/05 03:14:56;;;;;;;;;;;;;;;13.59;100.00;101955.19;5055976;28;19929;-75
2023/09/05 03:17:21;;;;;;;;;;;;;;;13.54;100.00;101950.09;5053544;28;20354;-75
2023/09/05 03:19:46;;;;;;;;;;;;;;;13.47;100.00;101954.25;5055074;28;20422;-75
2023/09/05 03:22:12;;;;;;;;;;;;;;;13.40;100.00;101956.47;5053005;28;20366;-75
2023/09/05 03:24:37;;;;;;;;;;;;;;;13.37;100.00;101945.94;5036702;28;19927;-74
2023/09/05 03:27:03;;;;;;;;;;;;;;;13.30;100.00;101944.66;5038560;28;19924;-75
2023/09/05 03:29:28;;;;;;;;;;;;;;;13.22;100.00;101949.72;5053410;28;19925;-75
2023/09/05 03:31:53;;;;;;;;;;;;;;;13.23;100.00;101946.03;5037500;28;19920;-75
2023/09/05 03:34:19;;;;;;;;;;;;;;;13.15;100.00;101943.91;5036347;28;19956;-75
2023/09/05 03:36:44;;;;;;;;;;;;;;;13.18;100.00;101941.84;5037954;28;20007;-75
2023/09/05 03:39:09;;;;;;;;;;;;;;;13.14;100.00;101937.63;5034018;28;19927;-75
2023/09/05 03:41:34;;;;;;;;;;;;;;;13.17;100.00;101940.13;5055639;28;19920;-75
2023/09/05 03:44:00;;;;;;;;;;;;;;;13.19;100.00;101938.16;5052800;28;19955;-75
2023/09/05 03:46:25;;;;;;;;;;;;;;;13.12;100.00;101919.84;5053630;28;19920;-75
2023/09/05 03:48:52;;;;;;;;;;;;;;;13.23;100.00;101944.22;5056843;28;20360;-75
2023/09/05 03:51:18;;;;;;;;;;;;;;;13.14;100.00;101939.47;5040870;28;19920;-75
2023/09/05 03:53:43;;;;;;;;;;;;;;;13.11;100.00;101942.41;5056129;28;19935;-75
2023/09/05 03:56:08;;;;;;;;;;;;;;;13.11;100.00;101942.41;5060419;28;19924;-75
2023/09/05 03:58:33;;;;;;;;;;;;;;;13.00;100.00;101946.69;5056056;28;20391;-75
2023/09/05 04:01:02;;;;;;;;;;;;;;;12.96;100.00;101950.59;5052782;28;19927;-75
2023/09/05 04:03:30;;;;;;;;;;;;;;;12.95;100.00;101950.69;5064836;28;19908;-75
2023/09/05 04:05:59;;;;;;;;;;;;;;;12.89;100.00;101944.75;5058750;28;19921;-75
2023/09/05 04:08:24;;;;;;;;;;;;;;;12.88;100.00;101945.72;5055431;28;19912;-75
2023/09/05 04:10:49;;;;;;;;;;;;;;;12.88;100.00;101944.88;5057762;28;20362;-75
2023/09/05 04:13:15;;;;;;;;;;;;;;;12.84;100.00;101933.47;5042159;28;19920;-75
2023/09/05 04:15:40;;;;;;;;;;;;;;;12.75;100.00;101916.09;5040232;28;19920;-75
2023/09/05 04:18:05;;;;;;;;;;;;;;;12.93;100.00;101929.25;5059966;28;19971;-75
2023/09/05 04:20:31;;;;;;;;;;;;;;;12.95;100.00;101930.00;5057266;28;20011;-75
2023/09/05 04:22:56;;;;;;;;;;;;;;;12.88;100.00;101940.34;5056673;28;20386;-75
2023/09/05 04:25:23;;;;;;;;;;;;;;;12.83;100.00;101923.66;5055632;28;19920;-75
2023/09/05 04:27:50;;;;;;;;;;;;;;;12.78;100.00;101925.81;5055315;28;19967;-75
2023/09/05 04:30:15;;;;;;;;;;;;;;;12.80;100.00;101926.56;5056836;28;19924;-75
2023/09/05 04:32:42;;;;;;;;;;;;;;;12.72;100.00;101932.47;5052313;28;19927;-75
2023/09/05 04:35:08;;;;;;;;;;;;;;;12.73;100.00;101928.81;5054944;28;19924;-76
2023/09/05 04:37:33;;;;;;;;;;;;;;;12.77;100.00;101928.59;5057044;28;19926;-75
2023/09/05 04:40:00;;;;;;;;;;;;;;;12.75;100.00;101932.25;5059923;28;19931;-75
2023/09/05 04:42:26;;;;;;;;;;;;;;;12.79;100.00;101922.16;5064170;28;19966;-75
2023/09/05 04:44:51;;;;;;;;;;;;;;;12.88;100.00;101921.47;5054164;28;19921;-74
2023/09/05 04:47:23;;;;;;;;;;;;;;;12.90;100.00;101924.94;5052749;28;19928;-74
2023/09/05 04:49:49;;;;;;;;;;;;;;;12.93;100.00;101917.59;5055427;28;19928;-74
2023/09/05 04:52:14;;;;;;;;;;;;;;;13.30;100.00;101926.59;5055791;28;19924;-75
2023/09/05 04:54:40;;;;;;;;;;;;;;;13.56;100.00;101928.44;5057509;28;19924;-75
2023/09/05 04:57:05;;;;;;;;;;;;;;;13.75;100.00;101920.69;5055321;28;19920;-75
2023/09/05 04:59:30;;;;;;;;;;;;;;;13.92;100.00;101926.66;5067829;28;19951;-75
2023/09/05 05:01:55;;;;;;;;;;;;;;;14.07;100.00;101919.25;5052943;28;20021;-74
2023/09/05 05:04:22;;;;;;;;;;;;;;;14.24;100.00;101916.13;5046624;28;19930;-75
2023/09/05 05:06:47;;;;;;;;;;;;;;;14.44;100.00;101910.16;5051033;28;19919;-75
2023/09/05 05:09:12;;;;;;;;;;;;;;;14.63;100.00;101913.19;5048387;28;19920;-75
2023/09/05 05:11:37;;;;;;;;;;;;;;;14.80;100.00;101905.59;5049580;28;19928;-75
2023/09/05 05:14:02;;;;;;;;;;;;;;;14.92;100.00;101901.06;5034049;28;19924;-74
2023/09/05 05:16:28;;;;;;;;;;;;;;;15.03;100.00;101900.19;5032272;28;19920;-75
2023/09/05 05:18:53;;;;;;;;;;;;;;;15.06;100.00;101894.56;5047364;28;19918;-75
2023/09/05 05:21:18;;;;;;;;;;;;;;;15.20;100.00;101902.44;5052942;28;19950;-74
2023/09/05 05:23:43;;;;;;;;;;;;;;;15.33;100.00;101904.13;5055787;28;19916;-74
2023/09/05 05:26:09;;;;;;;;;;;;;;;15.41;100.00;101909.78;5056037;28;19928;-75
2023/09/05 05:28:34;;;;;;;;;;;;;;;15.42;100.00;101916.91;5053215;28;19959;-75
2023/09/05 05:30:59;;;;;;;;;;;;;;;15.47;100.00;101912.00;5058122;28;19935;-75
2023/09/05 05:33:24;;;;;;;;;;;;;;;15.43;100.00;101899.69;5043530;28;20709;-74
2023/09/05 05:35:55;;;;;;;;;;;;;;;15.65;100.00;101914.16;5048617;28;19920;-75
2023/09/05 05:38:21;;;;;;;;;;;;;;;15.73;100.00;101917.94;5044053;28;19975;-75
2023/09/05 05:40:46;;;;;;;;;;;;;;;15.79;100.00;101922.00;5041257;28;20421;-74
2023/09/05 05:43:11;;;;;;;;;;;;;;;15.84;100.00;101913.50;5031847;28;19966;-73
2023/09/05 05:45:36;;;;;;;;;;;;;;;15.91;100.00;101922.00;5048817;28;20050;-74
2023/09/05 05:48:01;;;;;;;;;;;;;;;15.97;100.00;101919.63;5045452;28;19920;-74
2023/09/05 05:50:27;;;;;;;;;;;;;;;15.99;100.00;101924.94;5055131;28;19967;-74
2023/09/05 05:52:52;;;;;;;;;;;;;;;16.06;100.00;101922.56;5052786;28;19954;-74
2023/09/05 05:55:17;;;;;;;;;;;;;;;16.10;100.00;101922.16;5057183;28;19955;-74
2023/09/05 05:57:42;;;;;;;;;;;;;;;16.22;100.00;101917.56;5042617;28;20015;-74
2023/09/05 06:00:08;;;;;;;;;;;;;;;16.25;100.00;101922.72;5044936;28;20241;-74
2023/09/05 06:02:33;;;;;;;;;;;;;;;16.30;100.00;101916.91;5036083;28;20239;-74
2023/09/05 06:04:59;;;;;;;;;;;;;;;16.38;100.00;101916.25;5052992;28;19927;-73
2023/09/05 06:07:24;;;;;;;;;;;;;;;16.49;100.00;101918.91;5052614;28;19965;-74
2023/09/05 06:09:50;;;;;;;;;;;;;;;16.64;100.00;101911.28;5050960;28;20019;-74
2023/09/05 06:12:15;;;;;;;;;;;;;;;16.79;100.00;101914.50;5051056;28;20278;-74
2023/09/05 06:14:40;;;;;;;;;;;;;;;16.85;100.00;101910.41;5037342;28;20358;-74
2023/09/05 06:17:05;;;;;;;;;;;;;;;16.97;100.00;101916.63;5051295;28;20426;-74
2023/09/05 06:19:30;;;;;;;;;;;;;;;17.12;100.00;101914.41;5053977;28;20370;-74
2023/09/05 06:21:58;;;;;;;;;;;;;;;17.18;100.00;101909.31;5049224;28;20039;-74
2023/09/05 06:24:23;;;;;;;;;;;;;;;17.27;100.00;101907.63;5052503;28;19928;-74
2023/09/05 06:26:49;;;;;;;;;;;;;;;17.35;100.00;101905.06;5054851;28;20302;-74
2023/09/05 06:29:14;;;;;;;;;;;;;;;17.54;100.00;101906.97;5049296;28;20373;-73
2023/09/05 06:31:39;;;;;;;;;;;;;;;17.66;100.00;101909.59;5045291;28;20372;-74
2023/09/05 06:34:04;;;;;;;;;;;;;;;17.65;100.00;101897.84;5049795;28;20302;-73
2023/09/05 06:36:29;;;;;;;;;;;;;;;17.77;100.00;101895.84;5053390;28;20393;-74
2023/09/05 06:38:55;;;;;;;;;;;;;;;17.89;100.00;101903.88;5046371;28;20453;-75
2023/09/05 06:41:20;;;;;;;;;;;;;;;17.99;100.00;101885.78;5033101;28;20307;-74
2023/09/05 06:43:45;;;;;;;;;;;;;;;18.12;100.00;101897.19;5033526;28;20351;-74
2023/09/05 06:46:10;;;;;;;;;;;;;;;18.22;100.00;101896.34;5050005;28;20409;-74
2023/09/05 06:48:36;;;;;;;;;;;;;;;18.30;100.00;101904.63;5046989;28;20389;-74
2023/09/05 06:51:01;;;;;;;;;;;;;;;18.37;100.00;101899.47;5046364;28;19975;-75
2023/09/05 06:53:27;;;;;;;;;;;;;;;18.44;100.00;101892.44;5052640;28;20438;-72
2023/09/05 06:55:52;;;;;;;;;;;;;;;18.56;100.00;101888.56;5051179;28;19924;-77
2023/09/05 06:58:18;;;;;;;;;;;;;;;18.68;100.00;101897.41;5047407;28;19958;-74
2023/09/05 07:00:43;;;;;;;;;;;;;;;18.77;100.00;101895.66;5047896;28;19920;-75
2023/09/05 07:03:08;;;;;;;;;;;;;;;18.91;100.00;101890.75;5053580;28;20196;-76
2023/09/05 07:05:37;;;;;;;;;;;;;;;18.98;100.00;101897.31;5049017;28;20346;-75
2023/09/05 07:08:03;;;;;;;;;;;;;;;19.09;100.00;101899.00;5048979;28;19924;-74
2023/09/05 07:10:28;;;;;;;;;;;;;;;19.16;100.00;101895.56;5031474;28;19924;-74
2023/09/05 07:12:53;;;;;;;;;;;;;;;19.16;100.00;101875.63;5051805;28;19971;-74
2023/09/05 07:15:18;;;;;;;;;;;;;;;19.38;100.00;101898.00;5052212;28;20035;-73
2023/09/05 07:17:44;;;;;;;;;;;;;;;19.41;100.00;101886.81;5047429;28;19920;-77
2023/09/05 07:20:09;;;;;;;;;;;;;;;19.46;100.00;101892.66;5035019;28;19927;-74
2023/09/05 07:22:35;;;;;;;;;;;;;;;19.60;100.00;101885.84;5049974;28;19928;-73
2023/09/05 07:25:00;;;;;;;;;;;;;;;19.67;100.00;101894.25;5051840;28;20004;-74
2023/09/05 07:27:25;;;;;;;;;;;;;;;19.76;100.00;101891.44;5052904;28;19954;-80
2023/09/05 07:29:51;;;;;;;;;;;;;;;19.86;100.00;101891.38;5051895;28;19999;-77
2023/09/05 07:32:16;;;;;;;;;;;;;;;19.94;100.00;101896.09;5051822;28;19928;-73
2023/09/05 07:34:41;;;;;;;;;;;;;;;20.02;100.00;101889.84;5050355;28;20036;-74
2023/09/05 07:37:06;;;;;;;;;;;;;;;20.08;100.00;101889.22;5050860;28;20253;-74
2023/09/05 07:39:31;;;;;;;;;;;;;;;20.20;100.00;101903.47;5048331;28;20619;-78
2023/09/05 07:41:57;;;;;;;;;;;;;;;20.31;100.00;101902.38;5053152;28;21122;-75
2023/09/05 07:44:22;;;;;;;;;;;;;;;20.40;100.00;101900.56;5053171;28;20061;-74
2023/09/05 07:46:47;;;;;;;;;;;;;;;20.51;100.00;101900.31;5047047;28;19945;-74
2023/09/05 07:49:13;;;;;;;;;;;;;;;20.65;100.00;101901.59;5047210;28;19920;-75
2023/09/05 07:51:39;;;;;;;;;;;;;;;20.72;100.00;101890.88;5049820;28;19926;-76
2023/09/05 07:54:04;;;;;;;;;;;;;;;20.85;100.00;101891.31;5052083;28;19924;-76
2023/09/05 07:56:30;;;;;;;;;;;;;;;20.92;100.00;101883.38;5045323;28;19927;-77
2023/09/05 07:58:55;;;;;;;;;;;;;;;21.06;100.00;101873.69;5063728;28;19975;-75
2023/09/05 08:01:21;;;;;;;;;;;;;;;21.17;100.00;101872.56;5049467;28;19920;-72
2023/09/05 08:03:47;;;;;;;;;;;;;;;21.20;100.00;101867.59;5048758;28;20270;-76
2023/09/05 08:06:12;;;;;;;;;;;;;;;21.34;100.00;101877.03;5048684;28;20286;-77
2023/09/05 08:08:37;;;;;;;;;;;;;;;21.45;100.00;101875.88;5051725;28;19958;-75
2023/09/05 08:11:03;;;;;;;;;;;;;;;21.59;100.00;101877.09;5052639;28;20009;-74
2023/09/05 08:13:28;;;;;;;;;;;;;;;21.70;100.00;101871.38;5052368;28;20073;-76
2023/09/05 08:15:54;;;;;;;;;;;;;;;21.78;100.00;101884.19;5050212;28;19924;-76
2023/09/05 08:18:19;;;;;;;;;;;;;;;21.84;100.00;101880.78;5043471;28;20504;-75
2023/09/05 08:20:44;;;;;;;;;;;;;;;21.91;100.00;101883.69;5050871;28;20280;-73
2023/09/05 08:23:10;;;;;;;;;;;;;;;21.96;100.00;101883.16;5048050;28;19947;-75
2023/09/05 08:25:35;;;;;;;;;;;;;;;22.04;100.00;101894.13;5046442;28;19952;-74
2023/09/05 08:28:00;;;;;;;;;;;;;;;22.09;100.00;101894.47;5051675;28;20456;-77
2023/09/05 08:30:27;;;;;;;;;;;;;;;22.12;100.00;101898.72;5032115;28;20457;-74
2023/09/05 08:32:54;;;;;;;;;;;;;;;22.24;100.00;101891.03;5050050;28;19924;-76
2023/09/05 08:35:19;;;;;;;;;;;;;;;22.31;100.00;101900.28;5053232;28;19928;-73
2023/09/05 08:37:44;;;;;;;;;;;;;;;22.33;100.00;101896.31;5049037;28;19963;-78
2023/09/05 08:40:10;;;;;;;;;;;;;;;22.44;100.00;101903.34;5035195;28;20035;-72
2023/09/05 08:42:35;;;;;;;;;;;;;;;22.51;100.00;101899.94;5049163;28;19916;-74
2023/09/05 08:45:02;;;;;;;;;;;;;;;22.64;100.00;101908.47;5046047;28;19928;-75
2023/09/05 08:47:27;;;;;;;;;;;;;;;22.76;100.00;101901.59;5050441;28;19920;-74
2023/09/05 08:49:53;;;;;;;;;;;;;;;22.85;100.00;101896.94;5040324;28;20402;-76
2023/09/05 08:52:19;;;;;;;;;;;;;;;22.87;100.00;101899.53;5048355;28;19924;-75
2023/09/05 08:54:44;;;;;;;;;;;;;;;23.00;100.00;101893.50;5048854;28;19948;-74
2023/09/05 08:57:09;;;;;;;;;;;;;;;23.03;100.00;101898.63;5051321;28;19956;-74
2023/09/05 08:59:34;;;;;;;;;;;;;;;23.17;100.00;101897.88;5049259;28;19999;-76
2023/09/05 09:02:00;;;;;;;;;;;;;;;23.21;100.00;101901.09;5048238;28;19964;-73
2023/09/05 09:04:26;;;;;;;;;;;;;;;23.36;100.00;101888.41;5049897;28;19916;-73
2023/09/05 09:06:55;;;;;;;;;;;;;;;23.57;100.00;101888.81;5063633;28;20480;-75
2023/09/05 09:09:50;;;;;;;;;;;;;;;23.56;100.00;101896.16;5050602;28;19963;-74
2023/09/05 09:12:15;;;;;;;;;;;;;;;23.66;95.47;101888.56;5044512;28;19983;-74
2023/09/05 09:14:40;;;;;;;;;;;;;;;23.70;97.00;101886.31;5049407;28;19920;-73
2023/09/05 09:17:05;;;;;;;;;;;;;;;23.76;92.83;101888.34;5049509;28;19921;-75
2023/09/05 09:19:31;;;;;;;;;;;;;;;23.88;96.85;101886.03;5051386;28;19966;-74
2023/09/05 09:22:00;;;;;;;;;;;;;;;23.94;85.80;101889.91;5049019;28;20027;-76
2023/09/05 09:24:30;;;;;;;;;;;;;;;24.02;89.36;101891.75;5047860;28;20000;-76
2023/09/05 09:26:56;;;;;;;;;;;;;;;24.06;86.67;101891.22;5046830;28;19920;-73
2023/09/05 09:29:21;;;;;;;;;;;;;;;24.24;96.80;101890.88;5045659;28;20385;-77
2023/09/05 09:31:47;;;;;;;;;;;;;;;24.37;86.17;101898.47;5050213;28;19920;-76
2023/09/05 09:34:13;;;;;;;;;;;;;;;24.49;87.71;101898.91;5049368;28;20019;-77
2023/09/05 09:36:38;;;;;;;;;;;;;;;24.50;80.93;101902.50;5042325;28;19969;-75
2023/09/05 09:39:07;;;;;;;;;;;;;;;24.58;84.94;101899.69;5045748;28;19932;-76
2023/09/05 09:41:32;;;;;;;;;;;;;;;24.74;80.00;101903.31;5066034;28;20306;-75
2023/09/05 09:43:58;;;;;;;;;;;;;;;24.82;86.43;101893.09;5045255;28;19921;-74
2023/09/05 09:46:24;;;;;;;;;;;;;;;24.93;84.84;101893.66;5027800;28;19939;-75
2023/09/05 09:48:50;;;;;;;;;;;;;;;24.98;80.70;101892.03;5028643;28;19931;-76
2023/09/05 09:51:15;;;;;;;;;;;;;;;24.99;80.21;101898.41;5042248;28;19921;-74
2023/09/05 09:53:40;;;;;;;;;;;;;;;25.20;81.60;101885.78;5047122;28;19928;-73
2023/09/05 09:56:12;;;;;;;;;;;;;;;25.34;76.68;101900.53;5043066;28;20432;-76
2023/09/05 09:58:44;;;;;;;;;;;;;;;25.42;76.43;101889.44;5063749;28;19921;-76
2023/09/05 10:01:11;;;;;;;;;;;;;;;25.50;76.40;101883.84;5041019;28;20015;-76
2023/09/05 10:03:37;;;;;;;;;;;;;;;25.61;74.20;101882.47;5046713;28;19969;-77
2023/09/05 10:06:04;;;;;;;;;;;;;;;25.74;70.00;101888.13;5048119;28;19971;-74
2023/09/05 10:08:30;;;;;;;;;;;;;;;25.74;67.49;101893.63;5037281;28;20444;-75
2023/09/05 10:10:55;;;;;;;;;;;;;;;25.70;76.35;101897.81;5044091;28;19928;-74
2023/09/05 10:13:24;;;;;;;;;;;;;;;25.92;69.76;101888.72;5040343;28;20016;-78
2023/09/05 10:15:49;;;;;;;;;;;;;;;25.94;65.36;101897.63;5044057;28;19979;-72
2023/09/05 10:18:14;;;;;;;;;;;;;;;25.88;60.95;101889.13;5045219;28;20318;-75
2023/09/05 10:20:40;;;;;;;;;;;;;;;25.87;62.60;101890.16;5050482;28;20290;-75
2023/09/05 10:23:06;;;;;;;;;;;;;;;25.97;68.75;101892.59;5046308;28;19924;-75
2023/09/05 10:25:32;;;;;;;;;;;;;;;26.15;70.83;101891.28;5045193;28;19928;-76
2023/09/05 10:27:57;;;;;;;;;;;;;;;26.29;69.91;101889.50;5030199;28;19924;-76
2023/09/05 10:30:22;;;;;;;;;;;;;;;26.27;64.53;101886.09;5043988;28;19970;-73
2023/09/05 10:32:49;;;;;;;;;;;;;;;26.52;71.22;101885.66;5046025;28;19933;-74
2023/09/05 10:35:18;;;;;;;;;;;;;;;26.88;76.80;101882.72;5044501;28;19956;-75
2023/09/05 10:37:44;;;;;;;;;;;;;;;27.32;64.04;101880.59;5047795;28;19954;-73
2023/09/05 10:40:10;;;;;;;;;;;;;;;27.54;64.70;101877.75;5043546;28;20068;-71
2023/09/05 10:42:40;;;;;;;;;;;;;;;27.74;60.50;101875.00;5046508;28;19961;-75
2023/09/05 10:45:18;;;;;;;;;;;;;;;28.05;63.20;101881.00;5047549;28;19921;-77
2023/09/05 10:47:43;;;;;;;;;;;;;;;28.21;64.98;101880.59;5047256;28;20057;-75
2023/09/05 10:50:09;;;;;;;;;;;;;;;28.32;54.26;101875.50;5044686;28;19920;-74
2023/09/05 10:52:35;;;;;;;;;;;;;;;28.64;53.92;101875.66;5031170;28;19920;-74
2023/09/05 10:55:18;;;;;;;;;;;;;;;28.72;52.22;101879.06;5050185;28;20008;-76
2023/09/05 10:57:45;;;;;;;;;;;;;;;28.78;54.63;101870.97;5043210;28;19994;-76
2023/09/05 11:00:14;;;;;;;;;;;;;;;28.79;50.99;101876.31;5043626;28;19928;-76
2023/09/05 11:02:40;;;;;;;;;;;;;;;29.10;53.41;101871.97;5047452;28;19925;-75
2023/09/05 11:05:10;;;;;;;;;;;;;;;29.26;53.80;101873.38;5051917;28;19920;-74
2023/09/05 11:07:42;;;;;;;;;;;;;;;29.67;51.11;101868.47;5052895;28;19967;-76
2023/09/05 11:10:11;;;;;;;;;;;;;;;29.99;47.10;101874.03;5051548;28;19920;-79
2023/09/05 11:12:37;;;;;;;;;;;;;;;29.88;51.27;101869.19;5048229;28;19971;-74
2023/09/05 11:15:05;;;;;;;;;;;;;;;29.71;47.50;101868.88;5052601;28;20502;-77
2023/09/05 11:17:30;;;;;;;;;;;;;;;29.74;49.54;101860.97;5049442;28;19924;-71
2023/09/05 11:19:55;;;;;;;;;;;;;;;30.76;46.27;101872.03;5050289;28;19985;-75
2023/09/05 11:22:22;;;;;;;;;;;;;;;30.56;46.03;101869.47;5048622;28;19920;-77
2023/09/05 11:24:48;;;;;;;;;;;;;;;30.41;48.80;101867.91;5042576;28;19920;-76
2023/09/05 11:27:14;;;;;;;;;;;;;;;30.76;48.92;101869.28;5050995;28;19920;-77
2023/09/05 11:29:39;;;;;;;;;;;;;;;31.43;44.73;101862.91;5034696;28;19931;-76
2023/09/05 11:32:08;;;;;;;;;;;;;;;31.73;43.40;101862.09;5031646;28;19925;-74
2023/09/05 11:34:34;;;;;;;;;;;;;;;32.53;46.43;101861.81;5050074;28;19975;-75
2023/09/05 11:36:59;;;;;;;;;;;;;;;32.63;40.62;101867.59;5051408;28;20390;-77
2023/09/05 11:39:27;;;;;;;;;;;;;;;32.90;39.59;101870.72;5051504;28;20395;-76
2023/09/05 11:41:54;;;;;;;;;;;;;;;33.37;38.56;101862.47;5049433;28;19924;-75
2023/09/05 11:44:29;;;;;;;;;;;;;;;33.74;39.57;101860.13;5051471;28;19955;-75
2023/09/05 11:46:55;;;;;;;;;;;;;;;34.24;40.73;101865.97;5052395;28;20015;-76
2023/09/05 11:49:20;;;;;;;;;;;;;;;34.14;39.99;101857.44;5052683;28;20023;-76
2023/09/05 11:51:45;;;;;;;;;;;;;;;34.75;35.85;101865.03;5051384;28;19971;-77
2023/09/05 11:54:11;;;;;;;;;;;;;;;35.00;37.19;101856.16;5050060;28;20228;-77
2023/09/05 11:56:36;;;;;;;;;;;;;;;34.52;39.03;101859.44;5046742;28;19985;-75
2023/09/05 11:59:01;;;;;;;;;;;;;;;33.51;39.03;101858.31;5049776;28;20346;-77
2023/09/05 12:01:27;;;;;;;;;;;;;;;33.80;41.97;101861.03;5045631;28;20400;-75
2023/09/05 12:03:58;;;;;;;;;;;;;;;33.63;40.61;101852.66;5054289;28;19997;-78
2023/09/05 12:06:24;;;;;;;;;;;;;;;34.22;35.94;101849.47;5049793;28;20357;-78
2023/09/05 12:08:49;;;;;;;;;;;;;;;34.82;36.07;101847.00;5045000;28;20047;-77
2023/09/05 12:11:27;;;;;;;;;;;;;;;34.53;35.46;101840.78;5048345;28;19920;-76
2023/09/05 12:13:55;;;;;;;;;;;;;;;34.83;36.74;101842.25;5047240;28;20041;-75
2023/09/05 12:16:21;;;;;;;;;;;;;;;35.13;37.79;101829.81;5049645;28;19963;-76
2023/09/05 12:18:47;;;;;;;;;;;;;;;35.78;34.66;101826.25;5045671;28;20027;-77
2023/09/05 12:21:13;;;;;;;;;;;;;;;36.52;35.51;101819.00;5047930;28;20331;-76
2023/09/05 12:23:38;;;;;;;;;;;;;;;35.93;33.83;101818.00;5050090;28;19920;-76